Summerland, Canada
Current Conditions -  °F | °C
As of 5:00 PM on Sunday 23 Nov 2014 (Local Time) from CYYF Reporting Station
Broken Clouds Broken Clouds  
Wind Chill: 37°   Ceiling: 6000
Heat Index: 43°   Visibility: 15mi
Dew Point: 34°   Wind: 9mph
Humidity: 70%   Direction: 170°S
Pressure: 30.01"   Gusts: NA
Location:  49.6°N, 119.68°W
Report Text: CYYF 240100Z 17008KT 15SM BKN060 06/01 A3001 RMK SC5 SLP173
Loading
Personal Weather Stations






























Interactive Weather Map New forecast layout! Learn more

10-Day Weather Forecast

Advertisements
Track Severe Weather on mobile